createdAt,value
2023-04-25T00:01:26.037Z,9.20
2023-04-25T00:03:28.099Z,9.10
2023-04-25T00:05:30.676Z,9.00
2023-04-25T00:07:33.312Z,9.00
2023-04-25T00:09:35.034Z,9.00
2023-04-25T00:11:37.704Z,9.00
2023-04-25T00:13:42.865Z,9.10
2023-04-25T00:15:45.441Z,9.10
2023-04-25T00:17:47.291Z,9.10
2023-04-25T00:19:49.289Z,9.10
2023-04-25T00:21:51.108Z,9.20
2023-04-25T00:23:56.250Z,9.10
2023-04-25T00:25:57.902Z,9.00
2023-04-25T00:27:59.605Z,9.10
2023-04-25T00:30:01.247Z,9.10
2023-04-25T00:32:03.225Z,9.00
2023-04-25T00:34:05.047Z,9.00
2023-04-25T00:36:07.281Z,9.00
2023-04-25T00:38:08.936Z,9.00
2023-04-25T00:40:11.294Z,9.00
2023-04-25T00:42:13.125Z,9.00
2023-04-25T00:44:17.898Z,9.00
2023-04-25T00:46:19.548Z,8.90
2023-04-25T00:48:22.699Z,9.00
2023-04-25T00:50:25.091Z,9.00
2023-04-25T00:52:26.703Z,9.00
2023-04-25T00:54:28.603Z,9.00
2023-04-25T00:56:30.541Z,9.00
2023-04-25T00:58:32.415Z,9.00
2023-04-25T01:00:34.119Z,9.00
2023-04-25T01:02:36.684Z,9.00
2023-04-25T01:04:38.857Z,9.00
2023-04-25T01:06:41.349Z,9.10
2023-04-25T01:08:43.116Z,9.00
2023-04-25T01:10:44.929Z,9.10
2023-04-25T01:12:46.775Z,9.10
2023-04-25T01:14:48.620Z,9.10
2023-04-25T01:16:50.618Z,9.00
2023-04-25T01:18:52.765Z,9.00
2023-04-25T01:20:55.124Z,9.00
2023-04-25T01:22:57.188Z,9.00
2023-04-25T01:24:59.592Z,9.10
2023-04-25T01:27:02.322Z,9.10
2023-04-25T01:29:05.321Z,9.20
2023-04-25T01:31:07.095Z,9.10
2023-04-25T01:33:09.150Z,9.20
2023-04-25T01:35:11.920Z,9.20
2023-04-25T01:37:13.593Z,9.20
2023-04-25T01:39:16.059Z,9.20
2023-04-25T01:41:18.921Z,9.20
2023-04-25T01:43:20.633Z,9.20
2023-04-25T01:45:22.244Z,9.20
2023-04-25T01:47:23.949Z,9.20
2023-04-25T01:49:25.891Z,9.20
2023-04-25T01:51:27.587Z,9.20
2023-04-25T01:53:29.332Z,9.20
2023-04-25T01:55:31.370Z,9.20
2023-04-25T01:57:33.069Z,9.30
2023-04-25T01:59:34.881Z,9.20
2023-04-25T02:01:36.575Z,9.10
2023-04-25T02:03:38.758Z,9.00
2023-04-25T02:05:41.501Z,8.90
2023-04-25T02:07:43.355Z,9.00
2023-04-25T02:09:45.055Z,9.00
2023-04-25T02:11:46.814Z,9.00
2023-04-25T02:13:48.609Z,8.90
2023-04-25T02:15:50.538Z,8.90
2023-04-25T02:17:53.717Z,8.80
2023-04-25T02:19:55.418Z,8.80
2023-04-25T02:21:58.086Z,8.70
2023-04-25T02:24:00.937Z,8.60
2023-04-25T02:26:03.495Z,8.60
2023-04-25T02:28:05.419Z,8.40
2023-04-25T02:30:08.716Z,8.40
2023-04-25T02:32:11.476Z,8.40
2023-04-25T02:34:13.264Z,8.40
2023-04-25T02:36:14.939Z,8.50
2023-04-25T02:38:16.789Z,8.50
2023-04-25T02:40:18.526Z,8.60
2023-04-25T02:42:20.492Z,8.60
2023-04-25T02:44:22.300Z,8.50
2023-04-25T02:46:37.908Z,8.40
2023-04-25T02:48:40.876Z,8.40
2023-04-25T02:50:42.718Z,8.40
2023-04-25T02:52:46.189Z,8.40
2023-04-25T02:54:48.016Z,8.40
2023-04-25T02:56:49.598Z,8.30
2023-04-25T02:58:51.358Z,8.40
2023-04-25T03:00:53.371Z,8.40
2023-04-25T03:02:55.280Z,8.30
2023-04-25T03:04:56.993Z,8.30
2023-04-25T03:06:58.637Z,8.30
2023-04-25T03:09:00.731Z,8.30
2023-04-25T03:11:02.417Z,8.30
2023-04-25T03:13:04.066Z,8.20
2023-04-25T03:15:07.030Z,8.20
2023-04-25T03:17:08.672Z,8.20
2023-04-25T03:19:10.376Z,8.20
2023-04-25T03:21:11.985Z,8.30
2023-04-25T03:23:13.610Z,8.30
2023-04-25T03:25:16.219Z,8.30
2023-04-25T03:27:18.222Z,8.30
2023-04-25T03:29:19.936Z,8.30
2023-04-25T03:31:21.748Z,8.30
2023-04-25T03:33:23.357Z,8.30
2023-04-25T03:35:26.084Z,8.30
2023-04-25T03:37:27.861Z,8.40
2023-04-25T03:39:29.505Z,8.30
2023-04-25T03:41:31.112Z,8.40
2023-04-25T03:43:32.792Z,8.40
2023-04-25T03:45:34.393Z,8.30
2023-04-25T03:47:36.101Z,8.30
2023-04-25T03:49:37.830Z,8.30
2023-04-25T03:51:39.726Z,8.40
2023-04-25T03:53:41.402Z,8.30
2023-04-25T03:55:43.640Z,8.40
2023-04-25T03:57:45.319Z,8.40
2023-04-25T03:59:47.061Z,8.30
2023-04-25T04:01:48.721Z,8.20
2023-04-25T04:03:50.849Z,8.10
2023-04-25T04:05:52.686Z,8.10
2023-04-25T04:07:54.724Z,8.10
2023-04-25T04:09:56.378Z,8.10
2023-04-25T04:11:57.995Z,8.10
2023-04-25T04:13:59.575Z,8.20
2023-04-25T04:16:01.255Z,8.20
2023-04-25T04:18:03.789Z,8.20
2023-04-25T04:20:06.991Z,8.20
2023-04-25T04:22:08.708Z,8.20
2023-04-25T04:24:11.337Z,8.10
2023-04-25T04:26:13.983Z,8.10
2023-04-25T04:28:17.110Z,8.10
2023-04-25T04:30:18.731Z,8.10
2023-04-25T04:32:20.641Z,8.00
2023-04-25T04:34:22.212Z,8.10
2023-04-25T04:36:24.126Z,8.10
2023-04-25T04:38:26.321Z,8.10
2023-04-25T04:40:28.142Z,8.20
2023-04-25T04:42:30.214Z,8.20
2023-04-25T04:44:35.310Z,8.30
2023-04-25T04:46:43.443Z,8.40
2023-04-25T04:48:45.452Z,8.40
2023-04-25T04:50:47.214Z,8.50
2023-04-25T04:52:48.939Z,8.50
2023-04-25T04:54:50.616Z,8.50
2023-04-25T04:56:53.261Z,8.50
2023-04-25T04:58:55.020Z,8.50
2023-04-25T05:00:56.944Z,8.50
2023-04-25T05:02:58.771Z,8.50
2023-04-25T05:05:00.674Z,8.60
2023-04-25T05:07:02.391Z,8.70
2023-04-25T05:09:04.581Z,8.70
2023-04-25T05:11:06.298Z,8.80
2023-04-25T05:13:08.096Z,8.80
2023-04-25T05:15:09.959Z,8.80
2023-04-25T05:17:11.733Z,8.80
2023-04-25T05:19:14.003Z,8.80
2023-04-25T05:21:15.672Z,8.80
2023-04-25T05:23:18.771Z,8.80
2023-04-25T05:25:20.441Z,8.80
2023-04-25T05:27:22.183Z,8.80
2023-04-25T05:29:23.850Z,8.90
2023-04-25T05:31:25.616Z,8.90
2023-04-25T05:33:27.324Z,9.00
2023-04-25T05:35:29.539Z,9.10
2023-04-25T05:37:32.145Z,9.20
2023-04-25T05:39:33.854Z,9.30
2023-04-25T05:41:35.434Z,9.20
2023-04-25T05:43:37.118Z,9.10
2023-04-25T05:45:39.224Z,9.20
2023-04-25T05:47:40.890Z,9.20
2023-04-25T05:49:42.877Z,9.20
2023-04-25T05:51:44.963Z,9.10
2023-04-25T05:53:46.647Z,9.20
2023-04-25T05:55:48.428Z,9.20
2023-04-25T05:57:53.305Z,9.40
2023-04-25T05:59:55.044Z,9.50
2023-04-25T06:01:56.802Z,9.70
2023-04-25T06:03:59.276Z,9.60
2023-04-25T06:06:02.165Z,9.50
2023-04-25T06:08:05.410Z,9.50
2023-04-25T06:10:07.653Z,9.60
2023-04-25T06:12:09.585Z,9.60
2023-04-25T06:14:11.297Z,9.70
2023-04-25T06:16:13.238Z,9.70
2023-04-25T06:18:17.343Z,9.70
2023-04-25T06:20:19.157Z,9.60
2023-04-25T06:22:21.359Z,9.50
2023-04-25T06:24:23.047Z,9.50
2023-04-25T06:26:24.686Z,9.50
2023-04-25T06:28:26.331Z,9.60
2023-04-25T06:30:28.698Z,9.60
2023-04-25T06:32:31.004Z,9.50
2023-04-25T06:34:36.003Z,9.60
2023-04-25T06:36:42.486Z,9.60
2023-04-25T06:38:44.331Z,9.70
2023-04-25T06:40:46.027Z,9.60
2023-04-25T06:42:48.680Z,9.70
2023-04-25T06:44:50.433Z,9.80
2023-04-25T06:46:52.112Z,9.70
2023-04-25T06:48:53.802Z,9.60
2023-04-25T06:50:56.098Z,9.70
2023-04-25T06:52:57.909Z,9.50
2023-04-25T06:54:59.961Z,9.40
2023-04-25T06:57:02.223Z,9.50
2023-04-25T06:59:03.864Z,9.50
2023-04-25T07:01:06.591Z,9.50
2023-04-25T07:03:09.765Z,9.50
2023-04-25T07:05:11.619Z,9.50
2023-04-25T07:07:13.239Z,9.50
2023-04-25T07:09:14.873Z,9.50
2023-04-25T07:11:16.556Z,9.60
2023-04-25T07:13:21.313Z,9.50
2023-04-25T07:15:24.293Z,9.50
2023-04-25T07:17:26.723Z,9.50
2023-04-25T07:19:50.816Z,9.50
2023-04-25T07:21:54.147Z,9.40
2023-04-25T07:24:03.015Z,9.50
2023-04-25T07:26:04.637Z,9.60
2023-04-25T07:28:09.532Z,9.40
2023-04-25T07:30:19.203Z,9.30
2023-04-25T07:32:23.947Z,9.20
2023-04-25T07:34:38.487Z,9.20
2023-04-25T07:36:43.313Z,9.20
2023-04-25T07:39:19.665Z,9.20
2023-04-25T07:41:26.817Z,9.10
2023-04-25T07:43:28.699Z,9.10
2023-04-25T07:45:30.609Z,9.10
2023-04-25T07:47:32.526Z,9.10
2023-04-25T07:49:36.829Z,9.00
2023-04-25T07:51:38.495Z,9.00
2023-04-25T07:53:40.370Z,9.00
2023-04-25T07:55:43.076Z,9.00
2023-04-25T07:57:47.840Z,9.00
2023-04-25T07:59:55.094Z,9.00
2023-04-25T08:02:12.092Z,9.00
2023-04-25T08:06:34.795Z,8.90
2023-04-25T08:08:36.799Z,8.90
2023-04-25T08:10:41.377Z,8.90
2023-04-25T08:12:43.172Z,8.90
2023-04-25T08:14:44.909Z,8.90
2023-04-25T08:16:49.598Z,8.90
2023-04-25T08:18:51.686Z,8.90
2023-04-25T08:20:59.456Z,8.90
2023-04-25T08:23:01.103Z,8.80
2023-04-25T08:25:04.029Z,8.80
2023-04-25T08:27:05.876Z,8.80
2023-04-25T08:29:24.384Z,8.70
2023-04-25T08:31:29.339Z,8.70
2023-04-25T08:33:38.244Z,8.70
2023-04-25T08:35:40.850Z,8.70
2023-04-25T08:38:08.103Z,8.70
2023-04-25T08:40:12.524Z,8.60
2023-04-25T08:42:15.699Z,8.60
2023-04-25T08:44:20.623Z,8.70
2023-04-25T08:46:22.749Z,8.80
2023-04-25T08:48:28.189Z,8.80
2023-04-25T08:50:31.209Z,8.90
2023-04-25T08:52:37.203Z,8.80
2023-04-25T08:54:44.595Z,8.70
2023-04-25T08:56:51.804Z,8.80
2023-04-25T08:58:53.798Z,8.70
2023-04-25T09:00:57.729Z,8.60
2023-04-25T09:03:04.367Z,8.60
2023-04-25T09:05:07.681Z,8.60
2023-04-25T09:07:11.078Z,8.50
2023-04-25T09:09:13.001Z,8.60
2023-04-25T09:11:19.525Z,8.60
2023-04-25T09:13:36.672Z,8.70
2023-04-25T09:15:49.925Z,8.80
2023-04-25T09:18:01.080Z,8.90
2023-04-25T09:20:06.786Z,8.80
2023-04-25T09:22:08.634Z,8.70
2023-04-25T09:24:12.433Z,8.70
2023-04-25T09:26:18.180Z,8.70
2023-04-25T09:28:30.844Z,8.60
2023-04-25T09:30:34.226Z,8.70
2023-04-25T09:32:36.382Z,8.80
2023-04-25T09:34:42.337Z,8.80
2023-04-25T09:36:44.076Z,8.70
2023-04-25T09:38:47.383Z,8.60
2023-04-25T09:40:50.732Z,8.60
2023-04-25T09:42:52.497Z,8.60
2023-04-25T09:45:00.038Z,8.60
2023-04-25T09:47:04.444Z,8.70
2023-04-25T09:49:15.370Z,8.60
2023-04-25T09:51:17.092Z,8.50
2023-04-25T09:53:19.819Z,8.50
2023-04-25T09:55:21.733Z,8.40
2023-04-25T09:57:25.066Z,8.50
2023-04-25T09:59:26.943Z,8.40
2023-04-25T10:01:28.874Z,8.40
2023-04-25T10:03:32.179Z,8.60
2023-04-25T10:05:36.668Z,8.50
2023-04-25T10:07:39.744Z,8.50
2023-04-25T10:09:41.818Z,8.40
2023-04-25T10:11:43.851Z,8.40
2023-04-25T10:13:46.639Z,8.40
2023-04-25T10:15:48.544Z,8.40
2023-04-25T10:17:51.564Z,8.40
2023-04-25T10:19:54.298Z,8.40
2023-04-25T10:22:09.781Z,8.50
2023-04-25T10:24:11.700Z,8.50
2023-04-25T10:26:15.363Z,8.60
2023-04-25T10:28:17.024Z,8.60
2023-04-25T10:30:19.078Z,8.50
2023-04-25T10:32:21.039Z,8.50
2023-04-25T10:34:38.088Z,8.40
2023-04-25T10:36:40.715Z,8.40
2023-04-25T10:38:46.188Z,8.40
2023-04-25T10:41:09.242Z,8.40
2023-04-25T10:50:11.441Z,8.20
2023-04-25T10:52:13.221Z,8.60
2023-04-25T10:54:45.047Z,8.50
2023-04-25T10:57:01.310Z,8.30
2023-04-25T10:59:34.132Z,8.20
2023-04-25T11:01:52.806Z,8.10
2023-04-25T11:04:00.397Z,8.00
2023-04-25T11:06:07.451Z,8.00
2023-04-25T11:08:22.270Z,8.20
2023-04-25T11:10:29.357Z,8.30
2023-04-25T11:12:40.284Z,8.30
2023-04-25T11:14:57.810Z,8.50
2023-04-25T11:17:15.447Z,8.00
2023-04-25T11:22:42.092Z,7.80
2023-04-25T11:24:47.823Z,7.90
2023-04-25T11:27:00.069Z,7.80
2023-04-25T11:29:01.974Z,7.80
2023-04-25T11:31:12.720Z,7.80
2023-04-25T11:33:28.085Z,7.90
2023-04-25T11:35:32.009Z,7.90
2023-04-25T11:37:36.451Z,8.10
2023-04-25T11:39:48.613Z,8.30
2023-04-25T11:41:51.747Z,8.20
2023-04-25T11:44:05.653Z,8.40
2023-04-25T11:46:13.364Z,8.20
2023-04-25T11:48:37.312Z,8.40
2023-04-25T11:50:47.067Z,8.30
2023-04-25T11:52:49.119Z,8.60
2023-04-25T11:54:51.161Z,8.40
2023-04-25T11:56:52.912Z,8.50
2023-04-25T11:58:55.192Z,8.50
2023-04-25T12:00:59.603Z,8.50
2023-04-25T12:03:03.841Z,8.40
2023-04-25T12:05:30.328Z,8.30
2023-04-25T12:07:33.528Z,8.30
2023-04-25T12:09:36.407Z,8.50
2023-04-25T12:11:45.275Z,8.60
2023-04-25T12:14:10.393Z,8.90
2023-04-25T12:16:12.269Z,9.00
2023-04-25T12:18:14.114Z,9.30
2023-04-25T12:20:18.244Z,8.80
2023-04-25T12:22:21.795Z,8.80
2023-04-25T12:24:28.338Z,8.70
2023-04-25T12:26:47.714Z,8.60
2023-04-25T12:28:50.261Z,8.80
2023-04-25T12:31:07.788Z,8.80
2023-04-25T12:33:09.609Z,8.90
2023-04-25T12:35:11.685Z,8.80
2023-04-25T12:37:34.232Z,8.80
2023-04-25T12:42:40.321Z,9.00
2023-04-25T12:56:13.055Z,8.80
2023-04-25T12:58:20.624Z,8.90
2023-04-25T13:00:26.398Z,8.80
2023-04-25T13:02:28.260Z,8.80
2023-04-25T13:07:34.130Z,8.80
2023-04-25T13:09:38.248Z,9.10
2023-04-25T13:11:43.240Z,9.40
2023-04-25T13:13:45.963Z,9.60
2023-04-25T13:15:54.591Z,9.50
2023-04-25T13:18:02.307Z,9.50
2023-04-25T13:20:10.592Z,9.90
2023-04-25T13:22:28.901Z,10.40
2023-04-25T13:24:30.894Z,11.70
2023-04-25T13:27:17.081Z,11.30
2023-04-25T13:29:42.124Z,12.10
2023-04-25T13:31:45.837Z,12.50
2023-04-25T13:33:47.586Z,13.10
2023-04-25T13:35:58.206Z,13.20
2023-04-25T13:38:00.172Z,12.60
2023-04-25T13:40:10.497Z,11.50
2023-04-25T13:42:13.302Z,11.30
2023-04-25T13:44:18.987Z,11.00
2023-04-25T13:46:44.536Z,11.00
2023-04-25T13:48:50.748Z,10.90
2023-04-25T13:50:52.549Z,11.10
2023-04-25T13:52:54.223Z,11.40
2023-04-25T13:55:04.914Z,11.50
2023-04-25T14:00:19.208Z,11.10
2023-04-25T14:03:23.177Z,11.10
2023-04-25T14:05:28.015Z,11.70
2023-04-25T14:07:31.065Z,12.00
2023-04-25T14:09:34.293Z,12.20
2023-04-25T14:11:37.291Z,11.80
2023-04-25T14:13:38.874Z,11.30
2023-04-25T14:15:47.959Z,10.90
2023-04-25T14:20:12.475Z,10.80
2023-04-25T14:22:17.425Z,10.90
2023-04-25T14:24:22.081Z,10.90
2023-04-25T14:26:23.906Z,10.90
2023-04-25T14:28:25.566Z,11.30
2023-04-25T14:30:28.272Z,11.70
2023-04-25T14:32:29.967Z,12.10
2023-04-25T14:34:33.219Z,12.10
2023-04-25T14:36:35.069Z,11.90
2023-04-25T14:38:36.824Z,11.90
2023-04-25T14:40:39.679Z,12.40
2023-04-25T14:42:41.285Z,12.20
2023-04-25T14:44:43.100Z,12.30
2023-04-25T14:46:44.872Z,12.90
2023-04-25T14:48:46.975Z,14.30
2023-04-25T14:50:48.700Z,14.80
2023-04-25T14:52:50.349Z,16.00
2023-04-25T14:54:52.103Z,17.50
2023-04-25T14:56:53.814Z,19.10
2023-04-25T14:58:55.473Z,16.10
2023-04-25T15:04:12.613Z,15.40
2023-04-25T15:06:22.658Z,17.10
2023-04-25T15:08:35.815Z,14.80
2023-04-25T15:10:56.710Z,12.90
2023-04-25T15:13:09.693Z,12.90
2023-04-25T15:15:27.284Z,12.90
2023-04-25T15:17:36.829Z,12.70
2023-04-25T15:19:48.107Z,12.60
2023-04-25T15:21:59.614Z,12.40
2023-04-25T15:24:05.198Z,14.30
2023-04-25T15:26:10.544Z,15.80
2023-04-25T15:28:27.309Z,15.60
2023-04-25T15:30:32.743Z,15.90
2023-04-25T15:42:36.995Z,11.80
2023-04-25T15:50:37.331Z,11.60
2023-04-25T16:00:01.719Z,11.30
2023-04-25T16:28:17.005Z,10.80
2023-04-25T16:30:18.997Z,11.00
2023-04-25T16:32:22.724Z,10.90
2023-04-25T16:34:27.380Z,10.70
2023-04-25T16:36:29.223Z,10.70
2023-04-25T16:38:31.206Z,10.60
2023-04-25T16:40:33.046Z,10.70
2023-04-25T16:42:34.763Z,10.60
2023-04-25T16:44:36.519Z,10.50
2023-04-25T16:46:40.682Z,10.50
2023-04-25T16:48:42.509Z,10.60
2023-04-25T16:50:44.453Z,10.50
2023-04-25T16:52:46.215Z,10.60
2023-04-25T16:54:49.148Z,10.50
2023-04-25T16:56:51.555Z,10.40
2023-04-25T16:58:55.629Z,10.40
2023-04-25T17:00:57.836Z,10.40
2023-04-25T17:03:00.954Z,10.40
2023-04-25T17:05:03.230Z,10.40
2023-04-25T17:07:04.982Z,10.40
2023-04-25T17:09:07.050Z,10.30
2023-04-25T17:11:10.273Z,10.30
2023-04-25T17:13:13.357Z,10.20
2023-04-25T17:15:15.367Z,10.30
2023-04-25T17:17:24.451Z,10.30
2023-04-25T17:19:26.287Z,10.30
2023-04-25T17:21:28.200Z,10.20
2023-04-25T17:23:32.388Z,10.20
2023-04-25T17:25:34.164Z,10.20
2023-04-25T17:27:37.073Z,10.10
2023-04-25T17:29:38.795Z,10.20
2023-04-25T17:31:40.610Z,10.20
2023-04-25T17:33:43.525Z,10.20
2023-04-25T17:35:47.823Z,10.20
2023-04-25T17:37:51.353Z,10.10
2023-04-25T17:39:53.102Z,10.20
2023-04-25T17:41:55.021Z,10.20
2023-04-25T17:43:56.702Z,10.10
2023-04-25T17:45:58.635Z,10.00
2023-04-25T17:48:02.273Z,10.10
2023-04-25T17:50:08.206Z,10.10
2023-04-25T17:52:09.970Z,10.00
2023-04-25T17:54:11.716Z,10.00
2023-04-25T17:56:25.946Z,10.00
2023-04-25T17:58:31.209Z,10.00
2023-04-25T18:00:33.646Z,9.90
2023-04-25T18:02:38.453Z,9.80
2023-04-25T18:04:41.467Z,9.90
2023-04-25T18:06:44.075Z,9.90
2023-04-25T18:08:47.907Z,9.80
2023-04-25T18:10:51.017Z,9.50
2023-04-25T18:12:54.275Z,9.30
2023-04-25T18:14:56.238Z,9.20
2023-04-25T18:17:00.193Z,8.90
2023-04-25T18:19:05.559Z,8.70
2023-04-25T18:21:08.693Z,8.70
2023-04-25T18:23:10.738Z,8.80
2023-04-25T18:25:13.879Z,8.80
2023-04-25T18:27:16.204Z,8.70
2023-04-25T18:29:32.935Z,8.60
2023-04-25T18:31:36.071Z,8.50
2023-04-25T18:33:37.930Z,8.40
2023-04-25T18:35:45.054Z,8.60
2023-04-25T18:37:56.362Z,8.50
2023-04-25T18:39:59.372Z,8.40
2023-04-25T18:42:05.949Z,8.40
2023-04-25T18:44:08.596Z,8.40
2023-04-25T18:46:10.421Z,8.50
2023-04-25T18:48:13.390Z,8.40
2023-04-25T18:50:15.787Z,8.40
2023-04-25T18:52:17.898Z,8.30
2023-04-25T18:54:26.867Z,8.30
2023-04-25T18:56:28.837Z,8.40
2023-04-25T18:58:30.698Z,8.40
2023-04-25T19:00:33.583Z,8.40
2023-04-25T19:02:41.194Z,8.40
2023-04-25T19:04:44.126Z,8.40
2023-04-25T19:06:47.083Z,8.30
2023-04-25T19:08:52.663Z,8.30
2023-04-25T19:11:20.486Z,8.30
2023-04-25T19:13:22.838Z,8.30
2023-04-25T19:15:43.480Z,8.20
2023-04-25T19:17:57.680Z,8.20
2023-04-25T19:20:19.966Z,8.20
2023-04-25T19:22:40.729Z,8.20
2023-04-25T19:24:42.399Z,8.10
2023-04-25T19:27:02.935Z,8.20
2023-04-25T19:29:06.007Z,8.20
2023-04-25T19:31:07.771Z,8.20
2023-04-25T19:33:28.353Z,8.10
2023-04-25T19:35:48.677Z,8.00
2023-04-25T19:37:56.511Z,8.00
2023-04-25T19:40:00.318Z,8.20
2023-04-25T19:42:03.052Z,8.20
2023-04-25T19:44:06.656Z,8.30
2023-04-25T19:46:21.893Z,8.10
2023-04-25T19:48:40.987Z,8.10
2023-04-25T19:50:42.668Z,8.00
2023-04-25T19:52:44.393Z,8.00
2023-04-25T19:54:48.243Z,8.00
2023-04-25T19:56:50.102Z,8.00
2023-04-25T19:58:52.118Z,8.00
2023-04-25T20:00:57.555Z,8.00
2023-04-25T20:02:59.407Z,8.00
2023-04-25T20:05:02.530Z,7.90
2023-04-25T20:07:05.571Z,7.90
2023-04-25T20:09:09.496Z,7.80
2023-04-25T20:11:12.093Z,7.90
2023-04-25T20:13:13.770Z,7.90
2023-04-25T20:15:18.014Z,7.90
2023-04-25T20:17:21.008Z,7.90
2023-04-25T20:19:23.955Z,7.80
2023-04-25T20:21:25.626Z,7.90
2023-04-25T20:23:30.065Z,7.80
2023-04-25T20:25:31.807Z,7.80
2023-04-25T20:27:33.678Z,8.00
2023-04-25T20:29:35.973Z,8.00
2023-04-25T20:32:02.620Z,8.10
2023-04-25T20:34:07.888Z,8.00
2023-04-25T20:36:11.839Z,8.00
2023-04-25T20:38:13.733Z,8.00
2023-04-25T20:42:34.333Z,7.90
2023-04-25T20:44:40.749Z,7.90
2023-04-25T20:46:43.522Z,7.80
2023-04-25T20:48:45.297Z,7.80
2023-04-25T20:50:47.248Z,7.80
2023-04-25T20:52:49.467Z,7.90
2023-04-25T20:54:52.502Z,7.90
2023-04-25T20:56:54.247Z,7.80
2023-04-25T20:58:58.081Z,7.80
2023-04-25T21:00:59.777Z,7.80
2023-04-25T21:03:05.282Z,7.80
2023-04-25T21:05:07.268Z,7.90
2023-04-25T21:07:08.916Z,7.80
2023-04-25T21:09:10.525Z,7.80
2023-04-25T21:11:12.715Z,7.80
2023-04-25T21:13:14.422Z,7.70
2023-04-25T21:15:21.285Z,7.70
2023-04-25T21:17:23.124Z,7.70
2023-04-25T21:19:24.812Z,7.80
2023-04-25T21:21:27.223Z,7.80
2023-04-25T21:23:28.981Z,7.80
2023-04-25T21:25:33.811Z,7.70
2023-04-25T21:27:36.992Z,7.70
2023-04-25T21:29:38.823Z,7.70
2023-04-25T21:31:40.928Z,7.70
2023-04-25T21:33:42.754Z,7.70
2023-04-25T21:35:44.762Z,7.70
2023-04-25T21:37:47.098Z,7.70
2023-04-25T21:39:48.770Z,7.70
2023-04-25T21:41:50.446Z,7.60
2023-04-25T21:43:52.351Z,7.70
2023-04-25T21:46:18.996Z,7.60
2023-04-25T21:48:15.769Z,7.60
2023-04-25T21:50:17.588Z,7.60
2023-04-25T21:52:19.402Z,7.60
2023-04-25T21:54:21.965Z,7.80
2023-04-25T21:56:23.871Z,7.80
2023-04-25T21:58:25.720Z,7.80
2023-04-25T22:00:27.722Z,7.70
2023-04-25T22:02:31.039Z,7.80
2023-04-25T22:04:33.078Z,7.70
2023-04-25T22:06:34.906Z,7.70
2023-04-25T22:08:37.273Z,7.70
2023-04-25T22:10:39.849Z,7.70
2023-04-25T22:12:51.001Z,7.70
2023-04-25T22:14:53.097Z,7.70
2023-04-25T22:16:55.909Z,7.60
2023-04-25T22:18:57.665Z,7.50
2023-04-25T22:21:00.857Z,7.50
2023-04-25T22:23:03.303Z,7.60
2023-04-25T22:25:05.229Z,7.70
2023-04-25T22:27:07.106Z,7.70
2023-04-25T22:29:09.120Z,7.60
2023-04-25T22:31:11.114Z,7.70
2023-04-25T22:33:12.911Z,7.60
2023-04-25T22:35:14.584Z,7.50
2023-04-25T22:37:16.770Z,7.50
2023-04-25T22:39:19.292Z,7.40
2023-04-25T22:41:21.249Z,7.50
2023-04-25T22:43:22.974Z,7.60
2023-04-25T22:45:24.684Z,7.50
2023-04-25T22:47:27.442Z,7.50
2023-04-25T22:49:29.246Z,7.40
2023-04-25T22:51:31.141Z,7.50
2023-04-25T22:53:34.781Z,7.50
2023-04-25T22:55:36.856Z,7.40
2023-04-25T22:57:38.837Z,7.40
2023-04-25T22:59:40.897Z,7.40
2023-04-25T23:01:42.630Z,7.50
2023-04-25T23:03:44.977Z,7.50
2023-04-25T23:05:46.879Z,7.60
2023-04-25T23:07:55.146Z,7.60
2023-04-25T23:09:59.033Z,7.60
2023-04-25T23:12:02.123Z,7.60
2023-04-25T23:14:03.867Z,7.60
2023-04-25T23:16:08.987Z,7.60
2023-04-25T23:18:10.807Z,7.60
2023-04-25T23:20:13.311Z,7.50
2023-04-25T23:22:15.202Z,7.50
2023-04-25T23:24:16.906Z,7.50
2023-04-25T23:26:19.087Z,7.50
2023-04-25T23:28:20.765Z,7.50
2023-04-25T23:30:22.707Z,7.50
2023-04-25T23:32:26.074Z,7.50
2023-04-25T23:34:34.628Z,7.50
2023-04-25T23:36:36.313Z,7.50
2023-04-25T23:38:38.081Z,7.40
2023-04-25T23:40:42.090Z,7.40
2023-04-25T23:42:43.751Z,7.40
2023-04-25T23:44:45.408Z,7.40
2023-04-25T23:46:47.220Z,7.40
2023-04-25T23:48:48.978Z,7.40
2023-04-25T23:50:50.713Z,7.40
2023-04-25T23:52:52.400Z,7.30
2023-04-25T23:54:54.362Z,7.20
2023-04-25T23:56:56.129Z,7.20
2023-04-25T23:58:57.882Z,7.20
